Terminal Aerodrome Forecast
Issued by NWS

Home | Current Version | Previous Version | Text Only | Print | Product List | Glossary On
Versions: 1 2 3 4 5 6 7 8 9 10 11 12 13 14 15 16 17 18 19 20 21 22 23 24 25
000
FTUS46 KSGX 180500
TAFSAN
TAF
KSAN 180520Z 1806/1912 VRB04KT P6SM SCT040 BKN150
     FM180900 VRB04KT P6SM VCSH BKN040
     FM181300 VRB04KT P6SM BKN040
     FM182000 29009KT P6SM SCT040
     FM190100 VRB04KT P6SM SCT040=

USA.gov is the U.S. government's official web portal to all federal, state and local government web resources and services.